createdAt,value
2019-01-28T00:00:17.141Z,4.40
2019-01-28T00:02:45.556Z,4.40
2019-01-28T00:05:13.989Z,4.40
2019-01-28T00:07:42.405Z,4.40
2019-01-28T00:10:11.075Z,4.40
2019-01-28T00:12:39.856Z,4.30
2019-01-28T00:15:09.201Z,4.20
2019-01-28T00:17:38.499Z,4.20
2019-01-28T00:20:07.863Z,4.10
2019-01-28T00:22:36.273Z,4.10
2019-01-28T00:25:06.630Z,4.20
2019-01-28T00:27:35.121Z,4.10
2019-01-28T00:30:04.513Z,4.10
2019-01-28T00:32:32.936Z,4.10
2019-01-28T00:35:01.361Z,4.10
2019-01-28T00:37:29.780Z,4.00
2019-01-28T00:39:58.199Z,4.00
2019-01-28T00:42:26.609Z,4.00
2019-01-28T00:44:55.027Z,4.00
2019-01-28T00:47:23.441Z,4.00
2019-01-28T00:49:51.845Z,4.00
2019-01-28T00:52:20.268Z,3.90
2019-01-28T00:54:48.674Z,3.90
2019-01-28T00:57:17.094Z,3.90
2019-01-28T00:59:45.492Z,3.90
2019-01-28T01:02:13.915Z,3.80
2019-01-28T01:04:42.328Z,3.90
2019-01-28T01:07:10.763Z,3.90
2019-01-28T01:09:39.157Z,4.00
2019-01-28T01:12:07.577Z,3.90
2019-01-28T01:14:35.991Z,3.90
2019-01-28T01:17:04.490Z,3.90
2019-01-28T01:19:32.971Z,3.90
2019-01-28T01:22:01.405Z,3.80
2019-01-28T01:24:29.814Z,3.80
2019-01-28T01:26:58.220Z,3.70
2019-01-28T01:29:26.640Z,3.70
2019-01-28T01:31:55.063Z,3.70
2019-01-28T01:34:23.471Z,3.70
2019-01-28T01:36:51.868Z,3.70
2019-01-28T01:39:20.288Z,3.70
2019-01-28T01:41:48.696Z,3.70
2019-01-28T01:44:17.127Z,3.70
2019-01-28T01:46:45.546Z,3.70
2019-01-28T01:49:13.956Z,3.70
2019-01-28T01:51:42.358Z,3.60
2019-01-28T01:54:11.036Z,3.50
2019-01-28T01:56:39.450Z,3.50
2019-01-28T01:59:07.879Z,3.40
2019-01-28T02:01:36.276Z,3.30
2019-01-28T02:04:05.065Z,3.20
2019-01-28T02:06:33.460Z,3.20
2019-01-28T02:09:01.876Z,3.10
2019-01-28T02:11:30.276Z,3.10
2019-01-28T02:13:58.698Z,3.10
2019-01-28T02:16:27.092Z,3.00
2019-01-28T02:18:55.512Z,3.00
2019-01-28T02:21:23.912Z,3.00
2019-01-28T02:23:55.010Z,2.90
2019-01-28T02:26:23.413Z,2.90
2019-01-28T02:28:52.210Z,2.80
2019-01-28T02:31:20.622Z,2.80
2019-01-28T02:33:49.053Z,2.80
2019-01-28T02:36:17.463Z,2.80
2019-01-28T02:38:45.886Z,2.80
2019-01-28T02:41:14.305Z,2.80
2019-01-28T02:43:42.720Z,2.70
2019-01-28T02:46:11.151Z,2.60
2019-01-28T02:48:39.571Z,2.60
2019-01-28T02:51:08.007Z,2.60
2019-01-28T02:53:36.418Z,2.60
2019-01-28T02:56:05.275Z,2.60
2019-01-28T02:58:54.621Z,2.50
2019-01-28T03:01:23.030Z,2.60
2019-01-28T03:03:51.448Z,2.50
2019-01-28T03:06:20.004Z,2.60
2019-01-28T03:08:48.416Z,2.50
2019-01-28T03:11:16.830Z,2.50
2019-01-28T03:13:45.250Z,2.50
2019-01-28T03:16:13.666Z,2.60
2019-01-28T03:18:42.081Z,2.50
2019-01-28T03:21:10.487Z,2.50
2019-01-28T03:23:38.905Z,2.50
2019-01-28T03:26:07.311Z,2.50
2019-01-28T03:28:35.732Z,2.60
2019-01-28T03:31:04.311Z,2.80
2019-01-28T03:33:32.786Z,2.90
2019-01-28T03:36:01.272Z,3.00
2019-01-28T03:38:29.692Z,3.10
2019-01-28T03:40:58.092Z,3.20
2019-01-28T03:43:26.514Z,3.20
2019-01-28T03:45:54.927Z,3.30
2019-01-28T03:48:23.353Z,3.20
2019-01-28T03:50:51.752Z,3.20
2019-01-28T03:53:20.310Z,3.10
2019-01-28T03:55:48.781Z,3.10
2019-01-28T03:58:17.214Z,3.10
2019-01-28T04:00:45.778Z,3.00
2019-01-28T04:03:14.265Z,3.00
2019-01-28T04:05:42.686Z,2.90
2019-01-28T04:08:11.090Z,3.00
2019-01-28T04:10:39.573Z,3.00
2019-01-28T04:13:08.010Z,3.00
2019-01-28T04:15:36.510Z,3.00
2019-01-28T04:18:04.980Z,3.10
2019-01-28T04:20:33.406Z,3.10
2019-01-28T04:23:01.808Z,3.10
2019-01-28T04:25:30.233Z,3.00
2019-01-28T04:27:58.641Z,2.90
2019-01-28T04:30:27.958Z,2.90
2019-01-28T04:32:56.433Z,3.00
2019-01-28T04:35:24.929Z,3.10
2019-01-28T04:37:53.361Z,3.10
2019-01-28T04:40:21.854Z,3.10
2019-01-28T04:42:50.266Z,3.20
2019-01-28T04:45:21.401Z,3.20
2019-01-28T04:47:50.098Z,3.30
2019-01-28T04:50:20.254Z,3.30
2019-01-28T04:52:48.724Z,3.30
2019-01-28T04:55:17.602Z,3.30
2019-01-28T04:57:46.149Z,3.30
2019-01-28T05:00:20.071Z,3.40
2019-01-28T05:02:48.560Z,3.40
2019-01-28T05:05:17.135Z,3.40
2019-01-28T05:07:45.692Z,3.40
2019-01-28T05:10:18.918Z,3.40
2019-01-28T05:12:47.457Z,3.40
2019-01-28T05:15:17.550Z,3.40
2019-01-28T05:17:46.112Z,3.40
2019-01-28T05:20:17.258Z,3.40
2019-01-28T05:22:45.810Z,3.40
2019-01-28T05:25:15.907Z,3.40
2019-01-28T05:27:44.634Z,3.40
2019-01-28T05:30:18.362Z,3.30
2019-01-28T05:32:46.782Z,3.30
2019-01-28T05:35:17.605Z,3.40
2019-01-28T05:37:46.087Z,3.40
2019-01-28T05:40:20.236Z,3.40
2019-01-28T05:42:48.809Z,3.50
2019-01-28T05:45:19.061Z,3.60
2019-01-28T05:47:47.518Z,3.60
2019-01-28T05:50:16.433Z,3.50
2019-01-28T05:52:45.030Z,3.60
2019-01-28T05:55:15.685Z,3.60
2019-01-28T05:57:44.157Z,3.60
2019-01-28T06:00:15.889Z,3.70
2019-01-28T06:02:44.285Z,3.70
2019-01-28T06:05:13.462Z,3.80
2019-01-28T06:07:41.906Z,3.80
2019-01-28T06:10:15.492Z,3.80
2019-01-28T06:12:43.930Z,3.90
2019-01-28T06:15:15.449Z,3.90
2019-01-28T06:17:43.855Z,3.90
2019-01-28T06:20:23.671Z,3.90
2019-01-28T06:22:52.132Z,3.90
2019-01-28T06:25:20.617Z,3.90
2019-01-28T06:27:49.021Z,3.80
2019-01-28T06:30:20.252Z,3.70
2019-01-28T06:32:48.740Z,3.70
2019-01-28T06:35:17.152Z,3.60
2019-01-28T06:37:45.556Z,3.60
2019-01-28T06:40:17.284Z,3.60
2019-01-28T06:42:45.722Z,3.50
2019-01-28T06:45:14.448Z,3.50
2019-01-28T06:47:46.872Z,3.40
2019-01-28T06:50:20.563Z,3.40
2019-01-28T06:52:48.981Z,3.40
2019-01-28T06:55:17.839Z,3.40
2019-01-28T06:57:46.425Z,3.30
2019-01-28T07:00:20.803Z,3.40
2019-01-28T07:02:49.303Z,3.40
2019-01-28T07:05:17.714Z,3.30
2019-01-28T07:07:46.165Z,3.40
2019-01-28T07:10:15.010Z,3.30
2019-01-28T07:12:43.442Z,3.40
2019-01-28T07:15:14.180Z,3.40
2019-01-28T07:17:42.615Z,3.40
2019-01-28T07:20:17.540Z,3.40
2019-01-28T07:22:46.020Z,3.50
2019-01-28T07:25:14.507Z,3.50
2019-01-28T07:27:42.920Z,3.60
2019-01-28T07:30:14.740Z,3.70
2019-01-28T07:32:43.162Z,3.70
2019-01-28T07:35:13.104Z,3.60
2019-01-28T07:37:41.538Z,3.60
2019-01-28T07:40:12.899Z,3.60
2019-01-28T07:42:41.331Z,3.60
2019-01-28T07:45:21.553Z,3.70
2019-01-28T07:47:50.051Z,3.80
2019-01-28T07:50:18.486Z,3.80
2019-01-28T07:52:46.886Z,3.90
2019-01-28T07:55:15.462Z,3.90
2019-01-28T07:57:43.853Z,3.80
2019-01-28T08:00:21.118Z,4.00
2019-01-28T08:02:49.890Z,3.90
2019-01-28T08:05:19.244Z,4.00
2019-01-28T08:07:47.717Z,4.00
2019-01-28T08:10:20.296Z,4.00
2019-01-28T08:12:49.553Z,4.00
2019-01-28T08:15:20.673Z,3.90
2019-01-28T08:17:49.075Z,4.00
2019-01-28T08:20:18.842Z,4.10
2019-01-28T08:22:47.380Z,4.20
2019-01-28T08:25:18.043Z,4.30
2019-01-28T08:27:46.441Z,4.40
2019-01-28T08:30:29.055Z,4.50
2019-01-28T08:32:57.542Z,4.50
2019-01-28T08:35:27.329Z,4.50
2019-01-28T08:37:55.739Z,4.60
2019-01-28T08:40:24.319Z,4.60
2019-01-28T08:42:52.716Z,4.60
2019-01-28T08:45:22.309Z,4.70
2019-01-28T08:47:50.728Z,4.80
2019-01-28T08:50:24.655Z,4.90
2019-01-28T08:52:53.155Z,4.90
2019-01-28T08:55:27.227Z,4.80
2019-01-28T08:57:55.826Z,4.60
2019-01-28T09:00:29.753Z,4.70
2019-01-28T09:02:58.471Z,4.80
2019-01-28T09:05:27.086Z,5.00
2019-01-28T09:07:55.625Z,5.00
2019-01-28T09:10:27.074Z,5.20
2019-01-28T09:12:55.582Z,5.10
2019-01-28T09:15:25.033Z,5.20
2019-01-28T09:17:53.623Z,5.10
2019-01-28T09:20:24.575Z,5.10
2019-01-28T09:22:53.134Z,5.20
2019-01-28T09:25:22.088Z,5.30
2019-01-28T09:27:50.574Z,5.40
2019-01-28T09:30:24.584Z,5.30
2019-01-28T09:32:53.000Z,5.30
2019-01-28T09:35:21.471Z,5.40
2019-01-28T09:37:50.026Z,5.50
2019-01-28T09:40:20.878Z,5.50
2019-01-28T09:42:49.432Z,5.40
2019-01-28T09:45:26.902Z,5.40
2019-01-28T09:47:55.396Z,5.40
2019-01-28T09:50:24.147Z,5.30
2019-01-28T09:52:53.236Z,5.10
2019-01-28T09:55:21.704Z,5.20
2019-01-28T09:57:50.194Z,5.20
2019-01-28T10:00:30.414Z,5.30
2019-01-28T10:02:58.913Z,5.40
2019-01-28T10:05:27.405Z,5.50
2019-01-28T10:07:55.888Z,5.40
2019-01-28T10:10:24.424Z,5.40
2019-01-28T10:12:52.854Z,5.50
2019-01-28T10:15:28.607Z,5.50
2019-01-28T10:17:56.324Z,5.60
2019-01-28T10:20:33.489Z,5.80
2019-01-28T10:23:02.009Z,5.90
2019-01-28T10:25:30.417Z,5.80
2019-01-28T10:27:58.917Z,5.90
2019-01-28T10:30:38.801Z,5.80
2019-01-28T10:33:07.597Z,5.70
2019-01-28T10:35:36.850Z,5.70
2019-01-28T10:38:06.204Z,5.60
2019-01-28T10:40:37.245Z,5.60
2019-01-28T10:43:06.910Z,5.70
2019-01-28T10:45:35.437Z,5.70
2019-01-28T10:48:04.607Z,5.70
2019-01-28T10:50:33.154Z,5.60
2019-01-28T10:53:01.577Z,5.40
2019-01-28T10:55:30.051Z,5.40
2019-01-28T10:57:58.904Z,5.30
2019-01-28T11:00:30.743Z,5.20
2019-01-28T11:02:59.432Z,5.20
2019-01-28T11:05:27.904Z,5.20
2019-01-28T11:07:56.568Z,5.20
2019-01-28T11:10:27.485Z,5.30
2019-01-28T11:12:55.929Z,5.30
2019-01-28T11:15:26.746Z,5.30
2019-01-28T11:17:55.573Z,5.20
2019-01-28T11:20:24.934Z,5.20
2019-01-28T11:22:53.496Z,5.20
2019-01-28T11:25:24.707Z,5.20
2019-01-28T11:27:53.299Z,5.10
2019-01-28T11:30:28.974Z,5.30
2019-01-28T11:32:57.484Z,5.20
2019-01-28T11:35:26.130Z,5.10
2019-01-28T11:37:54.691Z,5.10
2019-01-28T11:40:23.336Z,5.20
2019-01-28T11:42:51.807Z,5.20
2019-01-28T11:45:35.028Z,5.20
2019-01-28T11:48:04.050Z,5.30
2019-01-28T11:50:32.508Z,5.40
2019-01-28T11:53:00.942Z,5.50
2019-01-28T11:55:29.341Z,5.50
2019-01-28T11:57:57.830Z,5.70
2019-01-28T12:00:31.215Z,5.80
2019-01-28T12:02:59.654Z,5.90
2019-01-28T12:05:28.135Z,6.00
2019-01-28T12:07:56.835Z,6.00
2019-01-28T12:10:25.400Z,6.00
2019-01-28T12:12:53.804Z,5.80
2019-01-28T12:15:23.262Z,5.70
2019-01-28T12:17:51.833Z,5.90
2019-01-28T12:20:20.631Z,5.80
2019-01-28T12:22:49.048Z,5.70
2019-01-28T12:25:18.011Z,5.80
2019-01-28T12:27:46.635Z,5.70
2019-01-28T12:30:21.094Z,5.60
2019-01-28T12:32:51.177Z,5.80
2019-01-28T12:35:19.697Z,5.70
2019-01-28T12:37:48.100Z,5.60
2019-01-28T12:40:20.935Z,5.50
2019-01-28T12:42:49.693Z,5.30
2019-01-28T12:45:24.104Z,5.10
2019-01-28T12:47:52.648Z,5.00
2019-01-28T12:50:22.409Z,4.90
2019-01-28T12:52:50.994Z,4.70
2019-01-28T12:55:21.824Z,4.60
2019-01-28T12:57:50.225Z,4.60
2019-01-28T13:00:26.122Z,4.60
2019-01-28T13:02:54.520Z,4.70
2019-01-28T13:05:24.295Z,4.70
2019-01-28T13:07:52.765Z,4.60
2019-01-28T13:10:26.376Z,4.50
2019-01-28T13:12:54.790Z,4.50
2019-01-28T13:15:26.021Z,4.40
2019-01-28T13:17:54.585Z,4.40
2019-01-28T13:20:23.336Z,4.40
2019-01-28T13:22:51.837Z,4.50
2019-01-28T13:25:28.856Z,4.30
2019-01-28T13:27:57.329Z,4.30
2019-01-28T13:30:28.382Z,4.30
2019-01-28T13:32:57.926Z,4.30
2019-01-28T13:35:26.362Z,4.20
2019-01-28T13:37:54.760Z,4.10
2019-01-28T13:40:23.352Z,4.20
2019-01-28T13:42:51.760Z,4.10
2019-01-28T13:45:21.967Z,4.10
2019-01-28T13:47:51.015Z,4.10
2019-01-28T13:50:21.487Z,4.10
2019-01-28T13:52:50.453Z,4.00
2019-01-28T13:55:20.137Z,4.00
2019-01-28T13:57:48.769Z,3.90
2019-01-28T14:00:25.653Z,3.90
2019-01-28T14:02:54.293Z,3.80
2019-01-28T14:05:23.166Z,3.80
2019-01-28T14:07:51.561Z,3.80
2019-01-28T14:10:21.738Z,3.80
2019-01-28T14:12:50.277Z,3.80
2019-01-28T14:15:33.063Z,3.90
2019-01-28T14:18:01.549Z,3.80
2019-01-28T14:20:34.962Z,3.70
2019-01-28T14:23:03.681Z,3.80
2019-01-28T14:25:32.112Z,3.80
2019-01-28T14:28:00.508Z,3.80
2019-01-28T14:30:32.473Z,3.80
2019-01-28T14:33:00.872Z,3.70
2019-01-28T14:35:29.383Z,3.70
2019-01-28T14:37:57.798Z,3.70
2019-01-28T14:40:27.167Z,3.70
2019-01-28T14:42:55.570Z,3.70
2019-01-28T14:45:24.081Z,3.80
2019-01-28T14:47:52.493Z,3.80
2019-01-28T14:50:29.748Z,3.80
2019-01-28T14:52:58.230Z,3.80
2019-01-28T14:55:26.802Z,3.80
2019-01-28T14:57:55.538Z,3.70
2019-01-28T15:00:41.256Z,3.70
2019-01-28T15:03:09.742Z,3.80
2019-01-28T15:05:38.176Z,3.80
2019-01-28T15:08:07.424Z,3.70
2019-01-28T15:10:36.026Z,3.70
2019-01-28T15:13:04.804Z,3.70
2019-01-28T15:15:40.490Z,3.60
2019-01-28T15:18:10.846Z,3.60
2019-01-28T15:20:39.401Z,3.60
2019-01-28T15:23:07.818Z,3.60
2019-01-28T15:25:36.382Z,3.50
2019-01-28T15:28:05.240Z,3.60
2019-01-28T15:30:33.825Z,3.60
2019-01-28T15:33:02.375Z,3.60
2019-01-28T15:35:30.806Z,3.60
2019-01-28T15:37:59.276Z,3.60
2019-01-28T15:40:35.512Z,3.60
2019-01-28T15:43:04.853Z,3.60
2019-01-28T15:45:35.976Z,3.50
2019-01-28T15:48:05.445Z,3.40
2019-01-28T15:50:33.908Z,3.40
2019-01-28T15:53:02.312Z,3.40
2019-01-28T15:55:33.687Z,3.40
2019-01-28T15:58:02.085Z,3.30
2019-01-28T16:00:32.749Z,3.30
2019-01-28T16:03:01.825Z,3.30
2019-01-28T16:05:30.320Z,3.20
2019-01-28T16:07:58.730Z,3.10
2019-01-28T16:10:27.205Z,3.10
2019-01-28T16:12:56.608Z,3.10
2019-01-28T16:15:33.961Z,3.10
2019-01-28T16:18:02.444Z,3.10
2019-01-28T16:20:30.844Z,3.20
2019-01-28T16:22:59.412Z,3.20
2019-01-28T16:25:27.898Z,3.10
2019-01-28T16:27:56.380Z,3.00
2019-01-28T16:30:29.705Z,3.00
2019-01-28T16:32:58.287Z,3.00
2019-01-28T16:35:26.752Z,3.10
2019-01-28T16:37:55.660Z,3.10
2019-01-28T16:40:28.856Z,3.00
2019-01-28T16:42:58.117Z,3.00
2019-01-28T16:45:26.866Z,3.10
2019-01-28T16:47:55.322Z,3.00
2019-01-28T16:50:27.331Z,3.10
2019-01-28T16:52:56.128Z,3.10
2019-01-28T16:55:24.787Z,3.10
2019-01-28T16:57:54.173Z,3.20
2019-01-28T17:00:28.155Z,3.20
2019-01-28T17:02:56.708Z,3.20
2019-01-28T17:05:25.544Z,3.20
2019-01-28T17:07:53.979Z,3.20
2019-01-28T17:10:22.395Z,3.20
2019-01-28T17:12:50.896Z,3.30
2019-01-28T17:15:21.036Z,3.30
2019-01-28T17:17:49.457Z,3.40
2019-01-28T17:20:20.210Z,3.40
2019-01-28T17:22:48.970Z,3.40
2019-01-28T17:25:20.428Z,3.50
2019-01-28T17:27:48.840Z,3.50
2019-01-28T17:30:23.031Z,3.50
2019-01-28T17:32:51.626Z,3.50
2019-01-28T17:35:20.225Z,3.50
2019-01-28T17:37:48.663Z,3.50
2019-01-28T17:40:20.606Z,3.50
2019-01-28T17:42:49.032Z,3.50
2019-01-28T17:45:18.795Z,3.50
2019-01-28T17:47:47.361Z,3.50
2019-01-28T17:50:24.213Z,3.50
2019-01-28T17:52:46.468Z,3.50
2019-01-28T17:55:15.829Z,3.50
2019-01-28T17:57:44.402Z,3.40
2019-01-28T18:00:29.576Z,3.40
2019-01-28T18:02:52.280Z,3.40
2019-01-28T18:05:20.762Z,3.30
2019-01-28T18:07:49.248Z,3.40
2019-01-28T18:10:17.988Z,3.40
2019-01-28T18:12:46.653Z,3.40
2019-01-28T18:15:18.211Z,3.40
2019-01-28T18:17:46.756Z,3.40
2019-01-28T18:20:16.857Z,3.40
2019-01-28T18:22:46.662Z,3.50
2019-01-28T18:25:18.209Z,3.50
2019-01-28T18:27:46.681Z,3.50
2019-01-28T18:30:20.183Z,3.50
2019-01-28T18:32:48.683Z,3.50
2019-01-28T18:35:17.454Z,3.50
2019-01-28T18:37:45.944Z,3.50
2019-01-28T18:40:16.240Z,3.40
2019-01-28T18:42:44.710Z,3.50
2019-01-28T18:45:18.348Z,3.50
2019-01-28T18:47:45.704Z,3.50
2019-01-28T18:50:18.904Z,3.50
2019-01-28T18:52:47.858Z,3.50
2019-01-28T18:55:18.108Z,3.50
2019-01-28T18:57:46.652Z,3.40
2019-01-28T19:00:18.409Z,3.40
2019-01-28T19:02:46.884Z,3.40
2019-01-28T19:05:33.772Z,3.40
2019-01-28T19:08:15.848Z,3.40
2019-01-28T19:10:45.915Z,3.40
2019-01-28T19:13:18.850Z,3.40
2019-01-28T19:15:48.926Z,3.40
2019-01-28T19:18:24.476Z,3.40
2019-01-28T19:20:57.272Z,3.40
2019-01-28T19:23:25.758Z,3.40
2019-01-28T19:25:54.195Z,3.40
2019-01-28T19:28:22.618Z,3.50
2019-01-28T19:30:51.109Z,3.50
2019-01-28T19:33:19.541Z,3.50
2019-01-28T19:35:47.968Z,3.60
2019-01-28T19:38:16.375Z,3.60
2019-01-28T19:40:44.810Z,3.70
2019-01-28T19:43:13.214Z,3.60
2019-01-28T19:45:41.704Z,3.60
2019-01-28T19:48:10.105Z,3.70
2019-01-28T19:50:38.543Z,3.70
2019-01-28T19:53:07.020Z,3.60
2019-01-28T19:55:35.512Z,3.60
2019-01-28T19:58:04.468Z,3.60
2019-01-28T20:00:32.907Z,3.60
2019-01-28T20:03:01.341Z,3.60
2019-01-28T20:05:29.824Z,3.60
2019-01-28T20:07:58.314Z,3.60
2019-01-28T20:10:26.800Z,3.60
2019-01-28T20:12:55.268Z,3.60
2019-01-28T20:15:24.341Z,3.60
2019-01-28T20:17:52.758Z,3.60
2019-01-28T20:20:21.264Z,3.60
2019-01-28T20:22:49.753Z,3.60
2019-01-28T20:25:18.831Z,3.60
2019-01-28T20:27:47.342Z,3.60
2019-01-28T20:30:22.514Z,3.50
2019-01-28T20:32:51.088Z,3.50
2019-01-28T20:35:19.815Z,3.50
2019-01-28T20:37:48.239Z,3.50
2019-01-28T20:40:17.555Z,3.40
2019-01-28T20:42:46.017Z,3.40
2019-01-28T20:45:19.920Z,3.40
2019-01-28T20:47:48.335Z,3.30
2019-01-28T20:50:19.917Z,3.30
2019-01-28T20:52:48.426Z,3.30
2019-01-28T20:55:17.018Z,3.20
2019-01-28T20:57:45.454Z,3.20
2019-01-28T21:00:19.678Z,3.20
2019-01-28T21:02:48.106Z,3.20
2019-01-28T21:05:18.724Z,3.20
2019-01-28T21:07:47.264Z,3.10
2019-01-28T21:10:18.024Z,3.10
2019-01-28T21:12:46.484Z,3.10
2019-01-28T21:15:16.676Z,3.10
2019-01-28T21:17:45.968Z,3.00
2019-01-28T21:20:19.643Z,3.00
2019-01-28T21:22:48.605Z,3.00
2019-01-28T21:25:20.114Z,3.00
2019-01-28T21:27:48.595Z,3.00
2019-01-28T21:30:22.835Z,3.00
2019-01-28T21:32:51.297Z,2.90
2019-01-28T21:35:21.438Z,2.90
2019-01-28T21:38:00.547Z,2.90
2019-01-28T21:40:24.419Z,2.90
2019-01-28T21:42:52.817Z,2.80
2019-01-28T21:45:21.250Z,2.80
2019-01-28T21:47:55.227Z,2.80
2019-01-28T21:50:27.653Z,2.70
2019-01-28T21:52:56.056Z,2.70
2019-01-28T21:55:24.486Z,2.60
2019-01-28T21:57:52.888Z,2.60
2019-01-28T22:00:22.082Z,2.70
2019-01-28T22:02:50.495Z,2.60
2019-01-28T22:05:18.976Z,2.50
2019-01-28T22:07:47.393Z,2.50
2019-01-28T22:10:16.395Z,2.50
2019-01-28T22:12:44.836Z,2.60
2019-01-28T22:15:16.000Z,2.60
2019-01-28T22:17:44.396Z,2.60
2019-01-28T22:20:14.754Z,2.60
2019-01-28T22:22:43.171Z,2.50
2019-01-28T22:25:13.912Z,2.50
2019-01-28T22:27:42.347Z,2.50
2019-01-28T22:30:21.661Z,2.50
2019-01-28T22:32:50.092Z,2.50
2019-01-28T22:35:18.676Z,2.60
2019-01-28T22:37:47.200Z,2.60
2019-01-28T22:40:17.755Z,2.60
2019-01-28T22:42:46.265Z,2.60
2019-01-28T22:45:20.884Z,2.60
2019-01-28T22:47:49.300Z,2.50
2019-01-28T22:50:21.541Z,2.50
2019-01-28T22:52:50.040Z,2.50
2019-01-28T22:55:21.520Z,2.40
2019-01-28T22:57:50.000Z,2.40
2019-01-28T23:00:23.143Z,2.50
2019-01-28T23:02:51.565Z,2.50
2019-01-28T23:05:19.997Z,2.50
2019-01-28T23:07:48.419Z,2.50
2019-01-28T23:10:16.818Z,2.50
2019-01-28T23:12:45.246Z,2.40
2019-01-28T23:15:13.817Z,2.30
2019-01-28T23:17:42.232Z,2.20
2019-01-28T23:20:11.684Z,2.20
2019-01-28T23:22:40.192Z,2.20
2019-01-28T23:25:08.867Z,2.10
2019-01-28T23:27:37.277Z,2.10
2019-01-28T23:30:08.767Z,2.00
2019-01-28T23:32:37.206Z,1.90
2019-01-28T23:35:08.448Z,1.80
2019-01-28T23:37:36.907Z,1.70
2019-01-28T23:40:07.659Z,1.50
2019-01-28T23:42:36.077Z,1.50
2019-01-28T23:45:07.693Z,1.40
2019-01-28T23:47:36.112Z,1.10
2019-01-28T23:50:07.666Z,1.00
2019-01-28T23:52:36.095Z,0.90
2019-01-28T23:55:06.156Z,0.90
2019-01-28T23:57:34.889Z,0.80
